Grieskirchen, Austria
Current Conditions -  °F | °C
As of 3:50 AM on Sunday 28 Dec 2014 (Local Time) from LOWL Reporting Station
Overcast Overcast  
Wind Chill: 20°   Ceiling: 2200
Heat Index: 28°   Visibility: 6mi
Dew Point: 27°   Wind: 8mph
Humidity: 93%   Direction: 80°E
Pressure: 29.59"   Gusts: NA
Location:  48.23°N, 13.83°E
Report Text: LOWL 280150Z AUTO 08007KT 9999 OVC022 M02/M03 Q1002
Loading
Personal Weather Stations






























Interactive Weather Map New forecast layout! Learn more

10-Day Weather Forecast

Advertisements
Track Severe Weather on mobile